Time;durP1;ratioP1;P1;durP2;ratioP2;P2;SDS_P1;SDS_P2;PMS_P1;PMS_P2;Temp;Humidity;BMP_temperature;BMP_pressure;BME280_temperature;BME280_humidity;BME280_pressure;Samples;Min_cycle;Max_cycle;Signal;HPM_P1;HPM_P2
2021/11/19 00:00:22;;;;;;;10.38;5.70;;;;;;;;;;5081866;28;20027;-71
2021/11/19 00:02:47;;;;;;;7.88;4.72;;;;;;;;;;5095725;28;20019;-70
2021/11/19 00:05:12;;;;;;;7.80;5.10;;;;;;;;;;5086664;28;20027;-70
2021/11/19 00:07:37;;;;;;;9.95;6.35;;;;;;;;;;5086383;28;20376;-71
2021/11/19 00:10:04;;;;;;;8.20;5.43;;;;;;;;;;5097214;28;20077;-71
2021/11/19 00:12:30;;;;;;;9.52;4.88;;;;;;;;;;5095809;28;20028;-72
2021/11/19 00:14:57;;;;;;;10.55;5.53;;;;;;;;;;5087251;28;20028;-73
2021/11/19 00:17:23;;;;;;;7.85;4.93;;;;;;;;;;5089879;28;20027;-73
2021/11/19 00:19:48;;;;;;;10.50;5.80;;;;;;;;;;5072301;28;20020;-72
2021/11/19 00:22:14;;;;;;;8.75;5.20;;;;;;;;;;5094105;27;20492;-73
2021/11/19 00:24:40;;;;;;;10.65;5.63;;;;;;;;;;5071249;28;20023;-71
2021/11/19 00:27:07;;;;;;;8.63;3.70;;;;;;;;;;5107187;28;20403;-71
2021/11/19 00:29:32;;;;;;;8.85;5.07;;;;;;;;;;5079531;28;20027;-72
2021/11/19 00:31:58;;;;;;;7.65;4.75;;;;;;;;;;5077989;28;20017;-72
2021/11/19 00:34:23;;;;;;;8.75;4.70;;;;;;;;;;5087327;28;20342;-72
2021/11/19 00:36:49;;;;;;;8.93;5.72;;;;;;;;;;5076366;28;20020;-73
2021/11/19 00:39:15;;;;;;;7.15;5.05;;;;;;;;;;5090573;28;20027;-72
2021/11/19 00:41:42;;;;;;;10.63;4.47;;;;;;;;;;5071482;28;20020;-73
2021/11/19 00:44:10;;;;;;;9.88;5.65;;;;;;;;;;5071757;28;20469;-72
2021/11/19 00:46:35;;;;;;;7.20;5.05;;;;;;;;;;5057348;28;20254;-72
2021/11/19 00:49:00;;;;;;;7.60;4.90;;;;;;;;;;5074175;28;20016;-73
2021/11/19 00:51:28;;;;;;;9.10;5.35;;;;;;;;;;5087727;28;20020;-72
2021/11/19 00:53:55;;;;;;;9.43;5.72;;;;;;;;;;5082056;28;20069;-72
2021/11/19 00:56:22;;;;;;;9.30;5.30;;;;;;;;;;5078932;28;20032;-72
2021/11/19 00:58:49;;;;;;;10.73;6.22;;;;;;;;;;5075244;28;20028;-72
2021/11/19 01:01:19;;;;;;;9.75;5.93;;;;;;;;;;5086772;28;20059;-72
2021/11/19 01:03:46;;;;;;;9.25;4.75;;;;;;;;;;5095307;28;20028;-72
2021/11/19 01:06:12;;;;;;;9.90;4.97;;;;;;;;;;5094013;28;20028;-72
2021/11/19 01:08:38;;;;;;;10.27;5.90;;;;;;;;;;5079679;28;20431;-72
2021/11/19 01:11:05;;;;;;;7.72;5.65;;;;;;;;;;5083886;28;20068;-71
2021/11/19 01:13:31;;;;;;;8.82;5.57;;;;;;;;;;5075083;28;20024;-71
2021/11/19 01:15:59;;;;;;;9.95;5.30;;;;;;;;;;5075733;28;20032;-71
2021/11/19 01:18:35;;;;;;;7.90;5.85;;;;;;;;;;5073582;28;20028;-71
2021/11/19 01:21:08;;;;;;;11.32;6.03;;;;;;;;;;5081724;28;20069;-70
2021/11/19 01:23:34;;;;;;;10.05;5.50;;;;;;;;;;5072757;28;20088;-71
2021/11/19 01:26:06;;;;;;;9.65;6.13;;;;;;;;;;5078761;28;20071;-70
2021/11/19 01:28:32;;;;;;;12.77;7.07;;;;;;;;;;5082364;28;20147;-70
2021/11/19 01:31:03;;;;;;;8.93;5.97;;;;;;;;;;5076755;28;20032;-70
2021/11/19 01:33:29;;;;;;;8.18;5.80;;;;;;;;;;5093544;28;20081;-70
2021/11/19 01:35:54;;;;;;;11.35;6.07;;;;;;;;;;5077352;28;20028;-71
2021/11/19 01:38:20;;;;;;;9.65;5.57;;;;;;;;;;5085471;28;20020;-71
2021/11/19 01:40:51;;;;;;;11.63;6.07;;;;;;;;;;5093532;28;20073;-70
2021/11/19 01:43:16;;;;;;;8.13;5.43;;;;;;;;;;5093147;28;20027;-71
2021/11/19 01:45:45;;;;;;;7.95;5.47;;;;;;;;;;5093862;28;20024;-71
2021/11/19 01:48:11;;;;;;;8.00;5.43;;;;;;;;;;5074291;28;20123;-70
2021/11/19 01:50:40;;;;;;;9.25;5.93;;;;;;;;;;5074575;28;20051;-71
2021/11/19 01:53:24;;;;;;;8.95;5.82;;;;;;;;;;5073365;28;20312;-70
2021/11/19 01:55:56;;;;;;;9.65;5.72;;;;;;;;;;5074093;28;20020;-70
2021/11/19 01:58:27;;;;;;;10.85;6.70;;;;;;;;;;5073654;28;20033;-70
2021/11/19 02:00:57;;;;;;;8.57;6.32;;;;;;;;;;5082454;28;20112;-70
2021/11/19 02:03:24;;;;;;;9.15;6.13;;;;;;;;;;5078339;28;20024;-74
2021/11/19 02:05:58;;;;;;;11.13;5.95;;;;;;;;;;5089874;28;20032;-76
2021/11/19 02:08:25;;;;;;;10.20;6.53;;;;;;;;;;5091916;28;20393;-77
2021/11/19 02:11:09;;;;;;;9.55;5.90;;;;;;;;;;5078786;28;20032;-76
2021/11/19 02:13:46;;;;;;;8.77;5.85;;;;;;;;;;5082242;28;20482;-76
2021/11/19 02:16:19;;;;;;;10.55;6.05;;;;;;;;;;5090595;28;20020;-75
2021/11/19 02:18:56;;;;;;;9.45;6.10;;;;;;;;;;5091876;28;20024;-76
2021/11/19 02:21:43;;;;;;;12.43;7.38;;;;;;;;;;5092855;28;20016;-76
2021/11/19 02:24:30;;;;;;;12.80;6.82;;;;;;;;;;5073112;28;20028;-76
2021/11/19 02:27:28;;;;;;;9.50;6.80;;;;;;;;;;5074782;28;20052;-76
2021/11/19 02:29:55;;;;;;;10.27;6.10;;;;;;;;;;5013210;28;20040;-76
2021/11/19 02:32:32;;;;;;;10.70;6.40;;;;;;;;;;5046728;28;20139;-76
2021/11/19 02:34:58;;;;;;;11.20;6.43;;;;;;;;;;5000375;28;20076;-76
2021/11/19 02:37:26;;;;;;;13.38;7.20;;;;;;;;;;5025868;28;20034;-76
2021/11/19 02:39:53;;;;;;;13.90;6.93;;;;;;;;;;5018996;28;20049;-77
2021/11/19 02:42:26;;;;;;;11.77;7.10;;;;;;;;;;5011486;28;20072;-76
2021/11/19 02:44:54;;;;;;;11.07;6.95;;;;;;;;;;5043939;28;20033;-76
2021/11/19 02:47:20;;;;;;;11.02;6.80;;;;;;;;;;5007092;28;20029;-76
2021/11/19 02:49:46;;;;;;;9.32;6.07;;;;;;;;;;5030890;28;20030;-74
2021/11/19 02:52:23;;;;;;;9.93;6.38;;;;;;;;;;5010315;28;20112;-74
2021/11/19 02:54:49;;;;;;;10.65;7.10;;;;;;;;;;5035124;28;20068;-75
2021/11/19 02:57:14;;;;;;;10.45;6.47;;;;;;;;;;5025606;28;20123;-75
2021/11/19 02:59:40;;;;;;;11.48;7.15;;;;;;;;;;5013975;28;20036;-75
2021/11/19 03:02:11;;;;;;;11.20;7.32;;;;;;;;;;5018061;28;20021;-76
2021/11/19 03:04:41;;;;;;;9.50;7.20;;;;;;;;;;5020825;28;20024;-77
2021/11/19 03:07:06;;;;;;;10.55;6.63;;;;;;;;;;5092456;28;20024;-76
2021/11/19 03:09:33;;;;;;;12.43;7.35;;;;;;;;;;5086519;28;20028;-76
2021/11/19 03:11:59;;;;;;;10.68;7.25;;;;;;;;;;5071517;28;20559;-76
2021/11/19 03:14:25;;;;;;;9.20;6.28;;;;;;;;;;5072949;28;20025;-76
2021/11/19 03:16:50;;;;;;;11.63;7.07;;;;;;;;;;5083516;28;20093;-75
2021/11/19 03:19:16;;;;;;;12.73;6.82;;;;;;;;;;5080067;28;20107;-76
2021/11/19 03:21:42;;;;;;;12.10;7.45;;;;;;;;;;5072257;28;20030;-76
2021/11/19 03:24:08;;;;;;;11.32;8.00;;;;;;;;;;5074652;28;20100;-76
2021/11/19 03:26:34;;;;;;;10.00;7.22;;;;;;;;;;5086937;28;20103;-76
2021/11/19 03:29:01;;;;;;;9.63;7.70;;;;;;;;;;5083625;28;20668;-76
2021/11/19 03:31:26;;;;;;;14.88;8.05;;;;;;;;;;5072472;28;20032;-76
2021/11/19 03:33:52;;;;;;;11.85;7.10;;;;;;;;;;5070695;28;20024;-76
2021/11/19 03:36:19;;;;;;;11.43;7.38;;;;;;;;;;5086988;28;20427;-75
2021/11/19 03:38:45;;;;;;;12.80;7.78;;;;;;;;;;5090402;28;20020;-75
2021/11/19 03:41:12;;;;;;;12.07;7.80;;;;;;;;;;5072036;28;20016;-75
2021/11/19 03:43:40;;;;;;;10.98;7.75;;;;;;;;;;5090134;28;20016;-76
2021/11/19 03:46:07;;;;;;;12.27;7.45;;;;;;;;;;5081986;28;20028;-76
2021/11/19 03:48:34;;;;;;;9.90;7.13;;;;;;;;;;5072208;28;20024;-76
2021/11/19 03:51:11;;;;;;;10.85;7.07;;;;;;;;;;5072382;28;20392;-75
2021/11/19 03:53:36;;;;;;;9.40;7.43;;;;;;;;;;5073594;28;20055;-75
2021/11/19 03:56:03;;;;;;;10.60;6.72;;;;;;;;;;5063634;28;20056;-75
2021/11/19 03:58:29;;;;;;;10.70;7.28;;;;;;;;;;5084455;28;20032;-76
2021/11/19 04:00:56;;;;;;;7.82;6.90;;;;;;;;;;5086784;28;20387;-75
2021/11/19 04:03:22;;;;;;;12.48;7.63;;;;;;;;;;5071445;28;20044;-74
2021/11/19 04:05:48;;;;;;;8.68;7.10;;;;;;;;;;5071962;28;20048;-75
2021/11/19 04:08:13;;;;;;;9.18;6.85;;;;;;;;;;5073984;28;20388;-75
2021/11/19 04:10:39;;;;;;;12.20;7.53;;;;;;;;;;5080519;28;20111;-75
2021/11/19 04:13:06;;;;;;;10.85;7.13;;;;;;;;;;5076845;28;20043;-77
2021/11/19 04:15:35;;;;;;;10.93;6.50;;;;;;;;;;5072536;28;20089;-77
2021/11/19 04:18:00;;;;;;;7.07;5.45;;;;;;;;;;5081848;28;20509;-75
2021/11/19 04:20:25;;;;;;;7.53;5.75;;;;;;;;;;5082208;28;20025;-75
2021/11/19 04:22:51;;;;;;;8.50;6.30;;;;;;;;;;5073755;28;20052;-75
2021/11/19 04:25:17;;;;;;;8.80;5.75;;;;;;;;;;5080238;28;20028;-75
2021/11/19 04:27:43;;;;;;;10.52;6.22;;;;;;;;;;5080357;28;20049;-75
2021/11/19 04:30:09;;;;;;;8.68;6.72;;;;;;;;;;5090551;28;20421;-75
2021/11/19 04:32:34;;;;;;;9.88;6.57;;;;;;;;;;5080061;28;20028;-75
2021/11/19 04:35:00;;;;;;;8.68;6.45;;;;;;;;;;5080851;28;20020;-75
2021/11/19 04:37:25;;;;;;;9.73;6.20;;;;;;;;;;5070238;28;20485;-75
2021/11/19 04:39:51;;;;;;;8.93;6.28;;;;;;;;;;5067890;28;20021;-76
2021/11/19 04:42:16;;;;;;;9.20;6.80;;;;;;;;;;5077900;28;20036;-77
2021/11/19 04:44:42;;;;;;;8.30;6.13;;;;;;;;;;5087042;28;20025;-73
2021/11/19 04:47:07;;;;;;;10.25;6.55;;;;;;;;;;5071935;28;20070;-74
2021/11/19 04:49:34;;;;;;;8.98;6.35;;;;;;;;;;5089596;28;20598;-74
2021/11/19 04:52:00;;;;;;;5.85;4.97;;;;;;;;;;5080371;28;20016;-73
2021/11/19 04:54:25;;;;;;;8.18;6.38;;;;;;;;;;5072375;28;20484;-74
2021/11/19 04:56:51;;;;;;;8.32;6.22;;;;;;;;;;5085977;28;20021;-74
2021/11/19 04:59:17;;;;;;;8.98;6.30;;;;;;;;;;5090904;28;20024;-74
2021/11/19 05:01:44;;;;;;;8.23;6.10;;;;;;;;;;5083354;28;20025;-74
2021/11/19 05:04:09;;;;;;;8.85;6.68;;;;;;;;;;5075189;28;20021;-75
2021/11/19 05:06:35;;;;;;;9.57;6.35;;;;;;;;;;5090491;28;20027;-75
2021/11/19 05:09:00;;;;;;;8.93;5.80;;;;;;;;;;5089631;28;20384;-74
2021/11/19 05:11:29;;;;;;;9.05;6.40;;;;;;;;;;5088254;28;20362;-75
2021/11/19 05:13:55;;;;;;;10.45;7.55;;;;;;;;;;5070413;28;20032;-75
2021/11/19 05:16:20;;;;;;;10.10;6.78;;;;;;;;;;5089364;28;20074;-73
2021/11/19 05:18:46;;;;;;;10.45;7.07;;;;;;;;;;5091090;28;20518;-72
2021/11/19 05:21:12;;;;;;;6.93;5.57;;;;;;;;;;5091150;28;20047;-72
2021/11/19 05:23:37;;;;;;;11.00;7.00;;;;;;;;;;5082086;28;20031;-72
2021/11/19 05:26:03;;;;;;;9.85;7.50;;;;;;;;;;5085702;28;20020;-72
2021/11/19 05:28:28;;;;;;;8.60;6.50;;;;;;;;;;5071685;28;20056;-72
2021/11/19 05:30:54;;;;;;;10.18;6.57;;;;;;;;;;5086286;28;20043;-71
2021/11/19 05:33:21;;;;;;;9.20;6.90;;;;;;;;;;5085944;28;20075;-72
2021/11/19 05:35:47;;;;;;;9.00;6.68;;;;;;;;;;5091145;28;20023;-72
2021/11/19 05:38:13;;;;;;;8.35;6.90;;;;;;;;;;5090719;28;20051;-72
2021/11/19 05:40:38;;;;;;;8.38;6.30;;;;;;;;;;5088201;28;20069;-72
2021/11/19 05:43:04;;;;;;;9.18;6.30;;;;;;;;;;5076625;28;20016;-72
2021/11/19 05:45:32;;;;;;;7.53;5.95;;;;;;;;;;5056310;28;20025;-72
2021/11/19 05:47:58;;;;;;;9.00;6.88;;;;;;;;;;5089763;28;20384;-71
2021/11/19 05:50:25;;;;;;;8.40;6.80;;;;;;;;;;5094584;28;20020;-73
2021/11/19 05:52:52;;;;;;;10.25;7.00;;;;;;;;;;5082658;28;20048;-71
2021/11/19 05:55:19;;;;;;;8.30;6.25;;;;;;;;;;5078339;28;20012;-71
2021/11/19 05:57:45;;;;;;;10.05;7.15;;;;;;;;;;5082908;28;20035;-71
2021/11/19 06:00:12;;;;;;;6.55;5.03;;;;;;;;;;5074219;28;20030;-71
2021/11/19 06:02:38;;;;;;;9.75;7.55;;;;;;;;;;5076753;28;20050;-74
2021/11/19 06:05:03;;;;;;;8.18;6.68;;;;;;;;;;5069837;28;20023;-74
2021/11/19 06:07:29;;;;;;;8.10;5.80;;;;;;;;;;5093539;28;20072;-73
2021/11/19 06:09:54;;;;;;;11.50;7.05;;;;;;;;;;5092249;28;20054;-73
2021/11/19 06:12:21;;;;;;;8.32;6.57;;;;;;;;;;5083210;28;20113;-72
2021/11/19 06:14:48;;;;;;;9.82;6.40;;;;;;;;;;5088388;28;20012;-73
2021/11/19 06:17:16;;;;;;;8.20;6.30;;;;;;;;;;5079444;28;20028;-73
2021/11/19 06:19:43;;;;;;;8.57;6.38;;;;;;;;;;5082085;28;20028;-73
2021/11/19 06:22:11;;;;;;;8.80;6.50;;;;;;;;;;5071439;28;20040;-73
2021/11/19 06:24:39;;;;;;;7.15;5.88;;;;;;;;;;5086205;28;20028;-73
2021/11/19 06:27:05;;;;;;;7.57;5.40;;;;;;;;;;5074285;28;20068;-72
2021/11/19 06:29:31;;;;;;;8.48;6.72;;;;;;;;;;5085059;28;20130;-73
2021/11/19 06:31:57;;;;;;;9.18;6.05;;;;;;;;;;5091995;28;20114;-73
2021/11/19 06:34:23;;;;;;;7.32;6.28;;;;;;;;;;5088137;28;20051;-73
2021/11/19 06:36:50;;;;;;;6.53;5.88;;;;;;;;;;5084478;28;20472;-73
2021/11/19 06:39:16;;;;;;;9.15;6.10;;;;;;;;;;5091589;28;20163;-73
2021/11/19 06:41:42;;;;;;;8.48;5.72;;;;;;;;;;5077675;28;20112;-73
2021/11/19 06:44:08;;;;;;;6.65;5.78;;;;;;;;;;5072904;28;20023;-73
2021/11/19 06:46:33;;;;;;;9.07;6.20;;;;;;;;;;5087633;28;20533;-73
2021/11/19 06:48:58;;;;;;;9.00;5.28;;;;;;;;;;5086548;28;20024;-74
2021/11/19 06:51:24;;;;;;;8.38;6.30;;;;;;;;;;5089328;28;20509;-73
2021/11/19 06:53:50;;;;;;;6.55;5.95;;;;;;;;;;5079463;28;20118;-73
2021/11/19 06:56:16;;;;;;;8.13;6.25;;;;;;;;;;5076408;28;20047;-73
2021/11/19 06:58:41;;;;;;;9.38;6.20;;;;;;;;;;5086432;28;20064;-73
2021/11/19 07:01:07;;;;;;;6.05;5.32;;;;;;;;;;5087192;28;20460;-73
2021/11/19 07:03:32;;;;;;;6.68;5.25;;;;;;;;;;5091129;28;20077;-73
2021/11/19 07:05:57;;;;;;;8.95;5.35;;;;;;;;;;5089627;28;20111;-73
2021/11/19 07:08:23;;;;;;;7.60;5.03;;;;;;;;;;5073149;28;20392;-73
2021/11/19 07:10:53;;;;;;;7.13;5.40;;;;;;;;;;5078964;28;20017;-73
2021/11/19 07:13:18;;;;;;;6.30;5.32;;;;;;;;;;5073445;28;20036;-72
2021/11/19 07:15:44;;;;;;;8.00;5.05;;;;;;;;;;5070540;28;20020;-73
2021/11/19 07:18:10;;;;;;;6.30;4.68;;;;;;;;;;5090637;28;20028;-73
2021/11/19 07:20:36;;;;;;;6.20;5.00;;;;;;;;;;5076188;28;20028;-73
2021/11/19 07:23:01;;;;;;;5.90;5.05;;;;;;;;;;5069482;28;20020;-73
2021/11/19 07:25:28;;;;;;;5.05;4.57;;;;;;;;;;5083280;28;20024;-73
2021/11/19 07:27:56;;;;;;;6.20;4.93;;;;;;;;;;5099641;28;20088;-72
2021/11/19 07:30:23;;;;;;;4.30;3.80;;;;;;;;;;5071023;28;20040;-72
2021/11/19 07:32:49;;;;;;;5.38;4.38;;;;;;;;;;5086888;28;20086;-72
2021/11/19 07:35:14;;;;;;;4.85;4.45;;;;;;;;;;5071266;28;20052;-72
2021/11/19 07:37:40;;;;;;;5.72;4.95;;;;;;;;;;5107297;28;20024;-72
2021/11/19 07:40:06;;;;;;;4.88;4.30;;;;;;;;;;5086263;28;20507;-72
2021/11/19 07:42:32;;;;;;;5.97;4.30;;;;;;;;;;5092200;28;20016;-72
2021/11/19 07:44:57;;;;;;;4.38;3.65;;;;;;;;;;5091498;28;20012;-72
2021/11/19 07:47:22;;;;;;;4.13;3.72;;;;;;;;;;5073481;28;20027;-72
2021/11/19 07:49:47;;;;;;;5.15;4.15;;;;;;;;;;5103914;28;20019;-72
2021/11/19 07:52:13;;;;;;;4.03;3.60;;;;;;;;;;5091014;28;20078;-72
2021/11/19 07:54:38;;;;;;;4.10;3.65;;;;;;;;;;5080878;28;20081;-72
2021/11/19 07:57:04;;;;;;;4.00;3.60;;;;;;;;;;5086401;28;20476;-72
2021/11/19 07:59:30;;;;;;;5.85;3.88;;;;;;;;;;5087731;28;20472;-72
2021/11/19 08:02:01;;;;;;;5.13;3.35;;;;;;;;;;5086451;28;20107;-73
2021/11/19 08:04:28;;;;;;;6.05;3.65;;;;;;;;;;5080599;28;20424;-73
2021/11/19 08:06:53;;;;;;;6.75;5.70;;;;;;;;;;5085518;28;20028;-73
2021/11/19 08:09:18;;;;;;;4.85;4.25;;;;;;;;;;5072773;28;20032;-73
2021/11/19 08:11:44;;;;;;;3.80;3.40;;;;;;;;;;5077640;28;20089;-73
2021/11/19 08:14:09;;;;;;;3.40;3.10;;;;;;;;;;5070712;28;20016;-73
2021/11/19 08:16:38;;;;;;;4.13;3.22;;;;;;;;;;5091012;28;20035;-73
2021/11/19 08:19:04;;;;;;;5.13;4.03;;;;;;;;;;5091376;28;20427;-73
2021/11/19 08:21:29;;;;;;;3.85;3.53;;;;;;;;;;5091678;28;20081;-73
2021/11/19 08:24:00;;;;;;;5.80;3.42;;;;;;;;;;5075590;28;20024;-73
2021/11/19 08:26:28;;;;;;;3.47;2.88;;;;;;;;;;5076474;28;20119;-73
2021/11/19 08:28:54;;;;;;;3.85;3.08;;;;;;;;;;5069961;28;20048;-73
2021/11/19 08:31:20;;;;;;;3.40;2.67;;;;;;;;;;5071852;28;20044;-73
2021/11/19 08:33:48;;;;;;;2.92;2.42;;;;;;;;;;5080292;28;20024;-73
2021/11/19 08:36:13;;;;;;;3.03;2.65;;;;;;;;;;5091455;28;20063;-73
2021/11/19 08:38:42;;;;;;;3.85;2.80;;;;;;;;;;5088165;28;20047;-73
2021/11/19 08:41:08;;;;;;;2.55;2.20;;;;;;;;;;5072345;28;20021;-73
2021/11/19 08:43:35;;;;;;;3.67;2.65;;;;;;;;;;5104629;28;20023;-73
2021/11/19 08:46:01;;;;;;;2.88;2.58;;;;;;;;;;5082917;28;20491;-73
2021/11/19 08:48:27;;;;;;;2.97;2.65;;;;;;;;;;5080802;28;20123;-73
2021/11/19 08:50:53;;;;;;;3.38;3.08;;;;;;;;;;5070069;28;20017;-72
2021/11/19 08:53:18;;;;;;;4.90;2.97;;;;;;;;;;5070700;28;20032;-73
2021/11/19 08:55:47;;;;;;;3.67;2.38;;;;;;;;;;5088514;28;20032;-73
2021/11/19 08:58:14;;;;;;;3.10;2.28;;;;;;;;;;5077674;28;20080;-73
2021/11/19 09:00:39;;;;;;;3.10;1.75;;;;;;;;;;5091084;28;20020;-73
2021/11/19 09:03:07;;;;;;;3.35;2.33;;;;;;;;;;5074191;28;20012;-73
2021/11/19 09:05:33;;;;;;;2.80;2.40;;;;;;;;;;5081045;28;20023;-73
2021/11/19 09:07:58;;;;;;;2.17;1.98;;;;;;;;;;5086472;28;20517;-73
2021/11/19 09:10:23;;;;;;;2.95;2.28;;;;;;;;;;5088667;28;20016;-73
2021/11/19 09:12:49;;;;;;;2.28;2.05;;;;;;;;;;5092332;28;20024;-73
2021/11/19 09:15:16;;;;;;;2.65;1.77;;;;;;;;;;5077893;28;20027;-73
2021/11/19 09:18:00;;;;;;;2.92;2.20;;;;;;;;;;5093512;28;20020;-73
2021/11/19 09:20:40;;;;;;;2.97;2.35;;;;;;;;;;5091052;28;20524;-73
2021/11/19 09:23:11;;;;;;;2.13;1.95;;;;;;;;;;5082011;28;20013;-73
2021/11/19 09:25:37;;;;;;;3.28;1.90;;;;;;;;;;5084738;28;20438;-73
2021/11/19 09:28:03;;;;;;;4.05;2.00;;;;;;;;;;5075953;28;20564;-73
2021/11/19 09:30:31;;;;;;;4.68;1.70;;;;;;;;;;5080779;28;20024;-73
2021/11/19 09:32:58;;;;;;;3.47;1.80;;;;;;;;;;5103050;28;20123;-73
2021/11/19 09:35:25;;;;;;;2.83;1.40;;;;;;;;;;5114222;28;20479;-73
2021/11/19 09:37:52;;;;;;;1.67;1.20;;;;;;;;;;5099192;28;20016;-73
2021/11/19 09:40:18;;;;;;;1.83;1.48;;;;;;;;;;5088909;28;20095;-73
2021/11/19 09:42:56;;;;;;;1.50;1.40;;;;;;;;;;5086380;28;20113;-72
2021/11/19 09:45:47;;;;;;;2.42;1.10;;;;;;;;;;5075509;28;20384;-72
2021/11/19 09:48:16;;;;;;;2.95;1.13;;;;;;;;;;5086279;28;20039;-72
2021/11/19 09:50:47;;;;;;;2.50;1.45;;;;;;;;;;5092846;28;20031;-72
2021/11/19 09:53:31;;;;;;;1.20;1.10;;;;;;;;;;5076620;28;20030;-72
2021/11/19 09:56:15;;;;;;;1.88;1.00;;;;;;;;;;5081888;28;20420;-73
2021/11/19 09:58:46;;;;;;;2.35;1.33;;;;;;;;;;5074993;28;20024;-73
2021/11/19 10:01:20;;;;;;;3.13;1.30;;;;;;;;;;5077028;28;20229;-73
2021/11/19 10:04:21;;;;;;;1.67;0.90;;;;;;;;;;5091201;28;20059;-72
2021/11/19 10:06:53;;;;;;;1.92;1.00;;;;;;;;;;5034471;28;20033;-73
2021/11/19 10:09:23;;;;;;;1.73;0.80;;;;;;;;;;5043673;28;20033;-73
2021/11/19 10:11:54;;;;;;;1.33;0.82;;;;;;;;;;5050458;28;20408;-72
2021/11/19 10:14:40;;;;;;;1.02;0.70;;;;;;;;;;5040111;28;20037;-73
2021/11/19 10:17:10;;;;;;;2.03;1.15;;;;;;;;;;5069500;28;20021;-73
2021/11/19 10:19:46;;;;;;;1.48;0.73;;;;;;;;;;5055324;28;20083;-73
2021/11/19 10:22:11;;;;;;;1.30;0.60;;;;;;;;;;5020133;28;20040;-73
2021/11/19 10:24:45;;;;;;;1.17;0.77;;;;;;;;;;5048757;28;20366;-72
2021/11/19 10:27:12;;;;;;;0.80;0.70;;;;;;;;;;5033506;28;20029;-73
2021/11/19 10:29:44;;;;;;;1.15;0.80;;;;;;;;;;5044958;28;20485;-74
2021/11/19 10:32:11;;;;;;;1.60;0.60;;;;;;;;;;5050228;28;20040;-73
2021/11/19 10:34:39;;;;;;;1.75;0.52;;;;;;;;;;5049397;28;20083;-73
2021/11/19 10:37:07;;;;;;;1.35;0.60;;;;;;;;;;5067462;28;20665;-72
2021/11/19 10:39:35;;;;;;;1.90;0.60;;;;;;;;;;5054665;28;20092;-73
2021/11/19 10:42:09;;;;;;;0.85;0.57;;;;;;;;;;5088219;28;21672;-74
2021/11/19 10:44:37;;;;;;;1.15;0.55;;;;;;;;;;5091721;28;20023;-73
2021/11/19 10:47:05;;;;;;;0.85;0.60;;;;;;;;;;5091407;28;20020;-74
2021/11/19 10:49:58;;;;;;;1.30;0.47;;;;;;;;;;5089109;28;20022;-73
2021/11/19 10:52:41;;;;;;;0.90;0.63;;;;;;;;;;5083197;28;20476;-74
2021/11/19 10:55:06;;;;;;;0.65;0.50;;;;;;;;;;5079828;28;20019;-73
2021/11/19 10:57:40;;;;;;;0.47;0.45;;;;;;;;;;5076684;28;20561;-74
2021/11/19 11:00:09;;;;;;;0.95;0.40;;;;;;;;;;5073071;28;20444;-73
2021/11/19 11:02:38;;;;;;;1.35;0.77;;;;;;;;;;5087750;28;20024;-73
2021/11/19 11:05:16;;;;;;;1.45;1.30;;;;;;;;;;5074059;28;20119;-73
2021/11/19 11:07:58;;;;;;;1.05;0.80;;;;;;;;;;5089978;28;20043;-72
2021/11/19 11:10:28;;;;;;;1.08;0.60;;;;;;;;;;5088719;28;20028;-72
2021/11/19 11:12:54;;;;;;;0.68;0.63;;;;;;;;;;5081122;28;20028;-73
2021/11/19 11:15:22;;;;;;;0.95;0.70;;;;;;;;;;5079423;28;20043;-73
2021/11/19 11:17:52;;;;;;;0.85;0.77;;;;;;;;;;5091059;28;20016;-73
2021/11/19 11:20:21;;;;;;;1.40;0.63;;;;;;;;;;5079897;28;20030;-73
2021/11/19 11:22:51;;;;;;;1.05;0.75;;;;;;;;;;5073039;28;20028;-73
2021/11/19 11:25:22;;;;;;;0.60;0.57;;;;;;;;;;5080438;28;20024;-75
2021/11/19 11:28:08;;;;;;;1.15;0.65;;;;;;;;;;5079028;28;20056;-73
2021/11/19 11:30:52;;;;;;;1.33;1.13;;;;;;;;;;5075717;28;20020;-73
2021/11/19 11:33:20;;;;;;;1.17;0.80;;;;;;;;;;5087635;28;20048;-74
2021/11/19 11:35:51;;;;;;;1.20;0.95;;;;;;;;;;5077879;28;20566;-75
2021/11/19 11:38:23;;;;;;;1.10;0.95;;;;;;;;;;5090501;28;20170;-74
2021/11/19 11:40:48;;;;;;;1.42;1.00;;;;;;;;;;5078825;28;20020;-74
2021/11/19 11:43:14;;;;;;;2.40;1.13;;;;;;;;;;5073796;28;20027;-74
2021/11/19 11:45:41;;;;;;;1.90;0.85;;;;;;;;;;5081981;28;20143;-74
2021/11/19 11:48:15;;;;;;;0.95;0.90;;;;;;;;;;5078543;28;20035;-73
2021/11/19 11:50:46;;;;;;;2.13;1.92;;;;;;;;;;5071922;28;20021;-73
2021/11/19 11:53:16;;;;;;;3.15;1.75;;;;;;;;;;5074682;28;20024;-73
2021/11/19 11:55:46;;;;;;;2.63;1.88;;;;;;;;;;5081766;28;20556;-73
2021/11/19 11:58:29;;;;;;;2.08;1.92;;;;;;;;;;5085550;28;20116;-73
2021/11/19 12:01:13;;;;;;;2.13;1.80;;;;;;;;;;5072065;28;20388;-73
2021/11/19 12:03:45;;;;;;;2.25;1.73;;;;;;;;;;5071542;28;20025;-74
2021/11/19 12:06:19;;;;;;;1.48;1.38;;;;;;;;;;5084117;28;20123;-73
2021/11/19 12:08:50;;;;;;;1.08;0.80;;;;;;;;;;5072849;28;20534;-73
2021/11/19 12:11:35;;;;;;;2.13;1.27;;;;;;;;;;5078960;28;20020;-73
2021/11/19 12:14:13;;;;;;;2.00;1.40;;;;;;;;;;5087710;28;20119;-73
2021/11/19 12:16:42;;;;;;;2.50;1.67;;;;;;;;;;5087821;28;20122;-73
2021/11/19 12:19:30;;;;;;;2.72;1.33;;;;;;;;;;5082184;28;20051;-73
2021/11/19 12:22:03;;;;;;;2.05;1.42;;;;;;;;;;5074340;28;20020;-73
2021/11/19 12:24:37;;;;;;;2.88;1.52;;;;;;;;;;5087608;28;20019;-73
2021/11/19 12:27:10;;;;;;;3.60;1.40;;;;;;;;;;5078198;28;20054;-73
2021/11/19 12:29:35;;;;;;;1.85;1.70;;;;;;;;;;5091852;28;20117;-73
2021/11/19 12:32:01;;;;;;;2.15;1.35;;;;;;;;;;5088086;28;20428;-73
2021/11/19 12:34:38;;;;;;;2.88;2.03;;;;;;;;;;5088358;28;20036;-73
2021/11/19 12:37:07;;;;;;;2.13;1.80;;;;;;;;;;5076276;28;20335;-73
2021/11/19 12:39:34;;;;;;;2.88;2.17;;;;;;;;;;5074524;28;20032;-73
2021/11/19 12:42:04;;;;;;;1.52;1.40;;;;;;;;;;5081482;28;20074;-74
2021/11/19 12:44:29;;;;;;;1.52;1.40;;;;;;;;;;5091212;28;20024;-72
2021/11/19 12:47:01;;;;;;;2.75;1.50;;;;;;;;;;5078806;28;20024;-74
2021/11/19 12:49:42;;;;;;;1.90;1.70;;;;;;;;;;5073774;28;20439;-73
2021/11/19 12:52:12;;;;;;;1.35;1.20;;;;;;;;;;5083601;28;20427;-74
2021/11/19 12:54:37;;;;;;;2.08;1.90;;;;;;;;;;5091975;28;20028;-73
2021/11/19 12:57:19;;;;;;;1.50;1.38;;;;;;;;;;5082698;28;20021;-74
2021/11/19 12:59:50;;;;;;;3.20;1.90;;;;;;;;;;5085575;28;20493;-74
2021/11/19 13:02:28;;;;;;;2.85;1.85;;;;;;;;;;5091128;28;20055;-73
2021/11/19 13:04:59;;;;;;;2.60;1.90;;;;;;;;;;5093697;28;20058;-74
2021/11/19 13:07:34;;;;;;;2.58;1.90;;;;;;;;;;5094344;28;20021;-73
2021/11/19 13:10:01;;;;;;;2.88;2.05;;;;;;;;;;5094222;28;20027;-74
2021/11/19 13:12:26;;;;;;;2.80;1.98;;;;;;;;;;5095298;28;20066;-73
2021/11/19 13:15:11;;;;;;;3.33;1.85;;;;;;;;;;5095085;28;20012;-74
2021/11/19 13:17:38;;;;;;;2.70;2.00;;;;;;;;;;5080572;28;20402;-74
2021/11/19 13:20:23;;;;;;;2.40;1.65;;;;;;;;;;5075043;28;20481;-74
2021/11/19 13:22:48;;;;;;;3.60;1.80;;;;;;;;;;5076010;28;20034;-74
2021/11/19 13:25:32;;;;;;;3.13;1.95;;;;;;;;;;5090411;28;20028;-73
2021/11/19 13:27:58;;;;;;;5.25;2.75;;;;;;;;;;5086490;28;20074;-74
2021/11/19 13:30:33;;;;;;;3.00;2.70;;;;;;;;;;5091191;28;20028;-73
2021/11/19 13:33:13;;;;;;;2.57;2.33;;;;;;;;;;5094113;28;20110;-74
2021/11/19 13:35:38;;;;;;;3.75;2.33;;;;;;;;;;5114458;27;20480;-74
2021/11/19 13:38:09;;;;;;;2.92;2.40;;;;;;;;;;5094091;28;20019;-74
2021/11/19 13:40:37;;;;;;;4.50;3.00;;;;;;;;;;5103926;28;20016;-73
2021/11/19 13:43:08;;;;;;;4.13;3.17;;;;;;;;;;5093683;28;20024;-73
2021/11/19 13:45:43;;;;;;;5.15;3.40;;;;;;;;;;5088142;28;20538;-73
2021/11/19 13:48:08;;;;;;;3.83;2.95;;;;;;;;;;5089381;28;20047;-72
2021/11/19 13:50:53;;;;;;;3.88;3.42;;;;;;;;;;5094724;28;20067;-72
2021/11/19 13:53:18;;;;;;;4.13;2.40;;;;;;;;;;5074009;28;20032;-72
2021/11/19 13:55:53;;;;;;;5.15;2.85;;;;;;;;;;5092788;28;20035;-72
2021/11/19 13:58:30;;;;;;;4.95;3.15;;;;;;;;;;5093086;28;20035;-72
2021/11/19 14:01:14;;;;;;;4.78;2.50;;;;;;;;;;5094417;28;20028;-72
2021/11/19 14:03:39;;;;;;;5.10;2.40;;;;;;;;;;5081112;28;20125;-72
2021/11/19 14:06:09;;;;;;;3.53;2.60;;;;;;;;;;5094073;28;20108;-72
2021/11/19 14:08:34;;;;;;;3.38;2.30;;;;;;;;;;5094140;28;20099;-73
2021/11/19 14:11:01;;;;;;;4.50;2.22;;;;;;;;;;5093945;28;20108;-73
2021/11/19 14:13:33;;;;;;;2.47;2.10;;;;;;;;;;5088370;28;20499;-72
2021/11/19 14:16:18;;;;;;;2.75;1.88;;;;;;;;;;5094370;28;20043;-73
2021/11/19 14:24:18;;;;;;;3.20;2.60;;;;;;;;;;5079984;28;20065;-73
2021/11/19 14:26:48;;;;;;;4.00;2.38;;;;;;;;;;5092840;28;20103;-73
2021/11/19 14:29:20;;;;;;;2.53;2.13;;;;;;;;;;5108473;28;20062;-73
2021/11/19 14:31:47;;;;;;;2.22;1.90;;;;;;;;;;5089982;28;20110;-72
2021/11/19 14:34:13;;;;;;;1.92;1.83;;;;;;;;;;5092148;28;20070;-73
2021/11/19 14:36:39;;;;;;;2.53;2.33;;;;;;;;;;5093345;28;20031;-73
2021/11/19 14:39:12;;;;;;;3.85;2.15;;;;;;;;;;5093660;28;20016;-73
2021/11/19 14:41:44;;;;;;;3.90;2.28;;;;;;;;;;5092384;28;20050;-73
2021/11/19 14:44:25;;;;;;;3.28;2.35;;;;;;;;;;5092123;28;20074;-73
2021/11/19 14:46:56;;;;;;;2.85;2.05;;;;;;;;;;5095042;28;20023;-73
2021/11/19 14:49:32;;;;;;;3.25;1.98;;;;;;;;;;5082123;28;20017;-70
2021/11/19 14:52:16;;;;;;;2.80;1.80;;;;;;;;;;5070690;28;20423;-72
2021/11/19 14:54:43;;;;;;;3.33;1.98;;;;;;;;;;5091088;28;20031;-73
2021/11/19 14:57:08;;;;;;;1.83;1.70;;;;;;;;;;5093189;28;20361;-68